createdAt,value
2019-06-07T00:00:27.317Z,99.99
2019-06-07T00:01:08.447Z,99.99
2019-06-07T00:02:06.013Z,99.99
2019-06-07T00:03:09.252Z,99.99
2019-06-07T00:04:08.503Z,99.99
2019-06-07T00:05:07.383Z,99.99
2019-06-07T00:06:07.122Z,99.99
2019-06-07T00:07:09.072Z,99.99
2019-06-07T00:08:10.782Z,99.99
2019-06-07T00:09:08.180Z,99.99
2019-06-07T00:10:06.875Z,99.99
2019-06-07T00:11:07.490Z,99.99
2019-06-07T00:12:09.145Z,99.99
2019-06-07T00:13:06.899Z,99.99
2019-06-07T00:14:05.917Z,99.99
2019-06-07T00:15:10.552Z,99.99
2019-06-07T00:16:05.867Z,99.99
2019-06-07T00:17:07.788Z,99.99
2019-06-07T00:18:10.263Z,99.99
2019-06-07T00:19:05.834Z,99.99
2019-06-07T00:20:05.823Z,99.99
2019-06-07T00:21:05.813Z,99.99
2019-06-07T00:22:16.538Z,99.99
2019-06-07T00:23:05.792Z,99.99
2019-06-07T00:24:05.781Z,99.99
2019-06-07T00:25:05.770Z,99.99
2019-06-07T00:26:05.761Z,99.99
2019-06-07T00:27:05.751Z,99.99
2019-06-07T00:28:05.738Z,99.99
2019-06-07T00:29:05.729Z,99.99
2019-06-07T00:30:29.728Z,99.99
2019-06-07T00:31:05.709Z,99.99
2019-06-07T00:32:05.697Z,99.99
2019-06-07T00:33:05.686Z,99.99
2019-06-07T00:34:05.677Z,99.99
2019-06-07T00:35:05.690Z,99.99
2019-06-07T00:36:05.655Z,99.99
2019-06-07T00:37:07.088Z,99.99
2019-06-07T00:38:05.634Z,99.99
2019-06-07T00:39:05.624Z,99.99
2019-06-07T00:40:17.970Z,99.99
2019-06-07T00:41:05.602Z,99.99
2019-06-07T00:42:05.597Z,99.99
2019-06-07T00:43:05.581Z,99.99
2019-06-07T00:44:05.570Z,99.99
2019-06-07T00:45:05.559Z,99.99
2019-06-07T00:46:05.549Z,99.99
2019-06-07T00:47:05.541Z,99.99
2019-06-07T00:48:05.673Z,99.99
2019-06-07T00:49:05.517Z,99.99
2019-06-07T00:50:05.506Z,99.99
2019-06-07T00:51:05.496Z,99.99
2019-06-07T00:52:05.486Z,99.99
2019-06-07T00:53:16.893Z,99.99
2019-06-07T00:54:05.463Z,99.99
2019-06-07T00:55:05.454Z,99.99
2019-06-07T00:56:05.446Z,99.99
2019-06-07T00:57:05.458Z,99.99
2019-06-07T00:58:05.421Z,99.99
2019-06-07T00:59:11.237Z,99.99
2019-06-07T01:00:05.401Z,99.99
2019-06-07T01:01:05.391Z,99.99
2019-06-07T01:02:05.675Z,99.99
2019-06-07T01:03:05.368Z,99.99
2019-06-07T01:04:05.357Z,99.99
2019-06-07T01:05:05.347Z,99.99
2019-06-07T01:06:05.336Z,99.99
2019-06-07T01:07:05.376Z,99.99
2019-06-07T01:08:05.316Z,99.99
2019-06-07T01:09:05.303Z,99.99
2019-06-07T01:10:05.293Z,99.99
2019-06-07T01:11:05.284Z,99.99
2019-06-07T01:12:05.272Z,99.99
2019-06-07T01:13:05.263Z,99.99
2019-06-07T01:14:05.251Z,99.99
2019-06-07T01:15:05.241Z,99.99
2019-06-07T01:16:05.229Z,99.99
2019-06-07T01:17:22.535Z,99.99
2019-06-07T01:18:36.149Z,99.99
2019-06-07T01:19:05.198Z,99.99
2019-06-07T01:20:05.186Z,99.99
2019-06-07T01:21:05.182Z,99.99
2019-06-07T01:22:05.171Z,99.99
2019-06-07T01:23:05.183Z,99.99
2019-06-07T01:24:12.086Z,99.99
2019-06-07T01:25:05.133Z,99.99
2019-06-07T01:26:05.123Z,99.99
2019-06-07T01:27:05.113Z,99.99
2019-06-07T01:28:05.103Z,99.99
2019-06-07T01:29:05.091Z,99.99
2019-06-07T01:30:05.081Z,99.99
2019-06-07T01:31:05.070Z,99.99
2019-06-07T01:32:05.061Z,99.99
2019-06-07T01:33:05.048Z,99.99
2019-06-07T01:34:05.040Z,99.99
2019-06-07T01:35:05.028Z,99.99
2019-06-07T01:36:05.016Z,99.99
2019-06-07T01:37:05.005Z,99.99
2019-06-07T01:38:04.995Z,99.99
2019-06-07T01:39:04.984Z,99.99
2019-06-07T01:40:04.977Z,99.99
2019-06-07T01:41:04.963Z,99.99
2019-06-07T01:42:04.952Z,99.99
2019-06-07T01:43:04.949Z,99.99
2019-06-07T01:44:04.931Z,99.99
2019-06-07T01:45:04.921Z,99.99
2019-06-07T01:46:04.910Z,99.99
2019-06-07T01:47:04.900Z,99.99
2019-06-07T01:48:04.892Z,99.99
2019-06-07T01:49:04.877Z,99.99
2019-06-07T01:50:04.866Z,99.99
2019-06-07T01:51:05.269Z,99.99
2019-06-07T01:52:04.844Z,99.99
2019-06-07T01:53:04.834Z,99.99
2019-06-07T01:55:04.813Z,99.99
2019-06-07T01:56:04.802Z,99.99
2019-06-07T01:57:04.793Z,99.99
2019-06-07T01:58:04.781Z,99.99
2019-06-07T01:59:04.772Z,99.99
2019-06-07T02:00:04.760Z,99.99
2019-06-07T02:01:04.748Z,99.99
2019-06-07T02:02:04.738Z,99.99
2019-06-07T02:03:04.760Z,99.99
2019-06-07T02:04:04.718Z,99.99
2019-06-07T02:05:04.706Z,99.99
2019-06-07T02:06:04.695Z,99.99
2019-06-07T02:07:04.686Z,99.99
2019-06-07T02:08:04.674Z,99.99
2019-06-07T02:09:04.663Z,99.99
2019-06-07T02:10:04.653Z,99.99
2019-06-07T02:11:04.642Z,99.99
2019-06-07T02:12:24.622Z,99.99
2019-06-07T02:13:04.621Z,99.99
2019-06-07T02:14:04.610Z,99.99
2019-06-07T02:15:04.600Z,99.99
2019-06-07T02:16:04.588Z,99.99
2019-06-07T02:17:04.578Z,99.99
2019-06-07T02:18:04.569Z,99.99
2019-06-07T02:19:04.562Z,99.99
2019-06-07T02:20:04.546Z,99.99
2019-06-07T02:21:04.535Z,99.99
2019-06-07T02:22:04.527Z,99.99
2019-06-07T02:23:04.527Z,99.99
2019-06-07T02:24:04.512Z,99.99
2019-06-07T02:25:35.174Z,99.99
2019-06-07T02:26:04.483Z,99.99
2019-06-07T02:27:04.473Z,99.99
2019-06-07T02:28:26.494Z,99.99
2019-06-07T02:29:04.451Z,99.99
2019-06-07T02:30:35.412Z,99.99
2019-06-07T02:31:04.431Z,99.99
2019-06-07T02:32:04.423Z,99.99
2019-06-07T02:33:04.409Z,99.99
2019-06-07T02:34:04.400Z,99.99
2019-06-07T02:35:04.388Z,99.99
2019-06-07T02:36:04.386Z,99.99
2019-06-07T02:37:04.367Z,99.99
2019-06-07T02:38:04.357Z,99.99
2019-06-07T02:39:04.345Z,99.99
2019-06-07T02:40:04.336Z,99.99
2019-06-07T02:41:04.336Z,99.99
2019-06-07T02:42:04.319Z,99.99
2019-06-07T02:43:04.313Z,99.99
2019-06-07T02:44:04.299Z,99.99
2019-06-07T02:45:04.282Z,99.99
2019-06-07T02:46:24.522Z,99.99
2019-06-07T02:47:04.268Z,99.99
2019-06-07T02:48:04.255Z,99.99
2019-06-07T02:49:04.239Z,99.99
2019-06-07T02:50:04.234Z,99.99
2019-06-07T02:51:04.219Z,99.99
2019-06-07T02:52:04.215Z,99.99
2019-06-07T02:53:04.196Z,99.99
2019-06-07T02:54:04.187Z,99.99
2019-06-07T02:55:04.176Z,99.99
2019-06-07T02:57:04.188Z,99.99
2019-06-07T02:58:04.150Z,99.99
2019-06-07T02:59:04.132Z,99.99
2019-06-07T03:00:27.158Z,99.99
2019-06-07T03:01:09.021Z,99.99
2019-06-07T03:02:04.103Z,99.99
2019-06-07T03:03:04.092Z,99.99
2019-06-07T03:04:04.083Z,99.99
2019-06-07T03:05:04.087Z,99.99
2019-06-07T03:06:04.075Z,99.99
2019-06-07T03:07:04.048Z,99.99
2019-06-07T03:08:04.037Z,99.99
2019-06-07T03:09:04.025Z,99.99
2019-06-07T03:10:04.016Z,99.99
2019-06-07T03:11:04.008Z,99.99
2019-06-07T03:12:03.995Z,99.99
2019-06-07T03:13:03.983Z,99.99
2019-06-07T03:14:03.974Z,99.99
2019-06-07T03:15:03.984Z,99.99
2019-06-07T03:16:03.959Z,99.99
2019-06-07T03:17:03.940Z,99.99
2019-06-07T03:18:03.930Z,99.99
2019-06-07T03:19:03.920Z,99.99
2019-06-07T03:20:03.913Z,99.99
2019-06-07T03:21:05.592Z,99.99
2019-06-07T03:22:03.889Z,99.99
2019-06-07T03:23:03.877Z,99.99
2019-06-07T03:24:03.941Z,99.99
2019-06-07T03:25:03.854Z,99.99
2019-06-07T03:26:03.847Z,99.99
2019-06-07T03:27:34.173Z,99.99
2019-06-07T03:28:03.821Z,99.99
2019-06-07T03:29:03.825Z,99.99
2019-06-07T03:30:35.222Z,99.99
2019-06-07T03:31:03.791Z,99.99
2019-06-07T03:32:03.779Z,99.99
2019-06-07T03:33:03.769Z,99.99
2019-06-07T03:34:03.807Z,99.99
2019-06-07T03:35:03.745Z,99.99
2019-06-07T03:36:22.712Z,99.99
2019-06-07T03:37:03.722Z,99.99
2019-06-07T03:38:03.712Z,99.99
2019-06-07T03:39:03.711Z,99.99
2019-06-07T03:40:03.690Z,99.99
2019-06-07T03:41:03.679Z,99.99
2019-06-07T03:42:06.756Z,99.99
2019-06-07T03:43:03.658Z,99.99
2019-06-07T03:44:03.646Z,99.99
2019-06-07T03:45:03.636Z,99.99
2019-06-07T03:46:03.628Z,99.99
2019-06-07T03:47:03.614Z,99.99
2019-06-07T03:48:03.610Z,99.99
2019-06-07T03:49:03.621Z,99.99
2019-06-07T03:50:03.586Z,99.99
2019-06-07T03:51:04.979Z,99.99
2019-06-07T03:52:03.560Z,99.99
2019-06-07T03:53:03.614Z,99.99
2019-06-07T03:54:03.540Z,99.99
2019-06-07T03:55:03.528Z,99.99
2019-06-07T03:56:03.558Z,99.99
2019-06-07T03:57:04.696Z,99.99
2019-06-07T03:58:32.709Z,99.99
2019-06-07T03:59:03.485Z,99.99
2019-06-07T04:00:03.472Z,99.99
2019-06-07T04:01:03.463Z,99.99
2019-06-07T04:02:03.451Z,99.99
2019-06-07T04:03:03.441Z,99.99
2019-06-07T04:04:03.429Z,99.99
2019-06-07T04:05:03.436Z,99.99
2019-06-07T04:06:03.413Z,99.99
2019-06-07T04:07:03.396Z,99.99
2019-06-07T04:08:03.449Z,99.99
2019-06-07T04:09:03.376Z,99.99
2019-06-07T04:10:03.371Z,99.99
2019-06-07T04:11:03.398Z,99.99
2019-06-07T04:12:03.344Z,99.99
2019-06-07T04:13:03.336Z,99.99
2019-06-07T04:14:03.322Z,99.99
2019-06-07T04:15:03.311Z,99.99
2019-06-07T04:16:03.320Z,99.99
2019-06-07T04:17:03.293Z,99.99
2019-06-07T04:18:04.097Z,99.99
2019-06-07T04:19:03.275Z,99.99
2019-06-07T04:20:03.280Z,99.99
2019-06-07T04:21:03.252Z,99.99
2019-06-07T04:22:03.408Z,99.99
2019-06-07T04:23:03.227Z,99.99
2019-06-07T04:24:03.216Z,99.99
2019-06-07T04:25:03.210Z,99.99
2019-06-07T04:26:03.195Z,99.99
2019-06-07T04:27:03.184Z,99.99
2019-06-07T04:28:03.174Z,99.99
2019-06-07T04:29:47.317Z,99.99
2019-06-07T04:30:07.891Z,99.99
2019-06-07T04:31:03.143Z,99.99
2019-06-07T04:32:04.435Z,99.99
2019-06-07T04:33:03.123Z,99.99
2019-06-07T04:34:03.112Z,99.99
2019-06-07T04:35:03.109Z,99.99
2019-06-07T04:36:03.091Z,99.99
2019-06-07T04:37:03.082Z,99.99
2019-06-07T04:38:03.069Z,99.99
2019-06-07T04:39:03.059Z,99.99
2019-06-07T04:40:03.050Z,99.99
2019-06-07T04:41:03.038Z,99.99
2019-06-07T04:42:03.036Z,99.99
2019-06-07T04:43:03.025Z,99.99
2019-06-07T04:44:03.010Z,99.99
2019-06-07T04:45:03.032Z,99.99
2019-06-07T04:46:03.004Z,99.99
2019-06-07T04:47:02.977Z,99.99
2019-06-07T04:48:02.965Z,99.99
2019-06-07T04:49:02.955Z,99.99
2019-06-07T04:50:02.948Z,99.99
2019-06-07T04:51:02.976Z,99.99
2019-06-07T04:52:02.924Z,99.99
2019-06-07T04:53:02.920Z,99.99
2019-06-07T04:54:02.905Z,99.99
2019-06-07T04:55:02.894Z,99.99
2019-06-07T04:56:02.885Z,99.99
2019-06-07T04:57:02.873Z,99.99
2019-06-07T04:58:02.864Z,99.99
2019-06-07T04:59:02.854Z,99.99
2019-06-07T05:00:33.187Z,99.99
2019-06-07T05:01:03.622Z,99.99
2019-06-07T05:02:02.822Z,99.99
2019-06-07T05:03:02.813Z,99.90
2019-06-07T05:04:02.844Z,99.99
2019-06-07T05:05:02.792Z,99.90
2019-06-07T05:06:02.783Z,99.32
2019-06-07T05:07:02.772Z,99.23
2019-06-07T05:08:07.413Z,99.42
2019-06-07T05:09:02.752Z,99.42
2019-06-07T05:10:02.767Z,99.52
2019-06-07T05:11:02.732Z,98.75
2019-06-07T05:12:02.731Z,98.47
2019-06-07T05:13:02.712Z,98.56
2019-06-07T05:14:02.712Z,98.37
2019-06-07T05:15:02.694Z,98.66
2019-06-07T05:16:02.681Z,98.27
2019-06-07T05:17:02.671Z,98.42
2019-06-07T05:18:02.662Z,98.52
2019-06-07T05:19:02.652Z,98.23
2019-06-07T05:20:02.646Z,98.80
2019-06-07T05:21:02.632Z,96.61
2019-06-07T05:22:05.078Z,97.27
2019-06-07T05:23:02.619Z,97.27
2019-06-07T05:24:09.779Z,96.89
2019-06-07T05:25:02.593Z,96.22
2019-06-07T05:26:02.583Z,95.65
2019-06-07T05:27:02.616Z,95.94
2019-06-07T05:28:02.562Z,95.27
2019-06-07T05:29:02.554Z,95.75
2019-06-07T05:30:36.515Z,96.42
2019-06-07T05:31:05.719Z,95.27
2019-06-07T05:32:02.522Z,95.36
2019-06-07T05:33:02.514Z,95.94
2019-06-07T05:34:02.504Z,96.22
2019-06-07T05:35:02.510Z,95.94
2019-06-07T05:36:02.494Z,96.08
2019-06-07T05:37:11.390Z,94.84
2019-06-07T05:38:02.466Z,94.07
2019-06-07T05:39:02.459Z,94.27
2019-06-07T05:40:02.445Z,95.70
2019-06-07T05:41:02.438Z,95.03
2019-06-07T05:42:02.426Z,93.98
2019-06-07T05:43:02.420Z,93.70
2019-06-07T05:44:12.722Z,93.79
2019-06-07T05:45:02.405Z,93.88
2019-06-07T05:46:02.400Z,94.31
2019-06-07T05:47:02.380Z,93.36
2019-06-07T05:48:02.676Z,93.07
2019-06-07T05:49:02.359Z,94.02
2019-06-07T05:50:02.975Z,92.50
2019-06-07T05:51:02.354Z,91.54
2019-06-07T05:52:02.336Z,90.68
2019-06-07T05:53:02.329Z,91.68
2019-06-07T05:54:02.358Z,91.02
2019-06-07T05:55:02.353Z,90.73
2019-06-07T05:56:02.390Z,89.96
2019-06-07T05:57:02.339Z,89.29
2019-06-07T05:58:02.279Z,89.87
2019-06-07T05:59:02.270Z,89.48
2019-06-07T06:00:02.361Z,89.58
2019-06-07T06:01:41.605Z,88.24
2019-06-07T06:02:09.460Z,88.24
2019-06-07T06:03:05.847Z,88.53
2019-06-07T06:04:02.274Z,88.05
2019-06-07T06:05:02.598Z,88.39
2019-06-07T06:06:02.208Z,88.81
2019-06-07T06:07:02.201Z,89.25
2019-06-07T06:08:02.193Z,89.44
2019-06-07T06:09:13.327Z,89.92
2019-06-07T06:10:02.183Z,90.30
2019-06-07T06:11:02.169Z,90.11
2019-06-07T06:12:02.654Z,90.49
2019-06-07T06:13:02.147Z,90.78
2019-06-07T06:14:08.109Z,90.88
2019-06-07T06:15:02.129Z,89.92
2019-06-07T06:16:02.555Z,90.68
2019-06-07T06:17:02.111Z,90.39
2019-06-07T06:18:02.103Z,90.39
2019-06-07T06:19:02.094Z,89.58
2019-06-07T06:20:02.087Z,89.20
2019-06-07T06:21:16.088Z,89.29
2019-06-07T06:22:02.067Z,89.39
2019-06-07T06:23:02.085Z,90.63
2019-06-07T06:24:02.112Z,88.15
2019-06-07T06:25:30.598Z,87.57
2019-06-07T06:26:02.033Z,88.43
2019-06-07T06:27:18.874Z,88.53
2019-06-07T06:28:10.962Z,87.29
2019-06-07T06:29:02.007Z,88.09
2019-06-07T06:30:01.999Z,88.00
2019-06-07T06:31:01.991Z,87.33
2019-06-07T06:32:40.442Z,86.57
2019-06-07T06:33:01.979Z,88.95
2019-06-07T06:34:01.965Z,86.94
2019-06-07T06:35:02.132Z,86.76
2019-06-07T06:36:01.948Z,86.76
2019-06-07T06:37:01.941Z,85.51
2019-06-07T06:38:01.936Z,86.28
2019-06-07T06:39:01.925Z,86.37
2019-06-07T06:40:01.920Z,86.37
2019-06-07T06:41:15.292Z,87.47
2019-06-07T06:42:03.909Z,87.08
2019-06-07T06:43:01.894Z,86.80
2019-06-07T06:44:01.884Z,85.84
2019-06-07T06:45:01.914Z,85.17
2019-06-07T06:46:01.914Z,85.36
2019-06-07T06:47:01.862Z,85.17
2019-06-07T06:48:01.854Z,86.22
2019-06-07T06:49:01.846Z,85.75
2019-06-07T06:50:01.841Z,85.08
2019-06-07T06:51:01.834Z,85.27
2019-06-07T06:52:01.823Z,86.41
2019-06-07T06:53:01.815Z,86.13
2019-06-07T06:54:01.808Z,85.08
2019-06-07T06:55:01.803Z,84.98
2019-06-07T06:56:01.794Z,84.59
2019-06-07T06:57:19.105Z,84.50
2019-06-07T06:58:01.778Z,84.88
2019-06-07T07:00:01.763Z,85.08
2019-06-07T07:01:06.391Z,86.17
2019-06-07T07:02:01.749Z,84.26
2019-06-07T07:03:47.213Z,81.77
2019-06-07T07:04:12.552Z,82.73
2019-06-07T07:05:01.727Z,82.00
2019-06-07T07:06:24.779Z,82.29
2019-06-07T07:07:01.715Z,82.48
2019-06-07T07:08:01.730Z,81.18
2019-06-07T07:09:01.703Z,80.51
2019-06-07T07:10:03.058Z,79.36
2019-06-07T07:11:01.692Z,80.32
2019-06-07T07:12:11.948Z,80.12
2019-06-07T07:13:01.717Z,79.55
2019-06-07T07:14:01.681Z,79.55
2019-06-07T07:15:01.767Z,79.07
2019-06-07T07:16:01.670Z,79.36
2019-06-07T07:17:01.662Z,79.45
2019-06-07T07:18:08.459Z,79.07
2019-06-07T07:19:01.655Z,79.83
2019-06-07T07:20:01.702Z,79.11
2019-06-07T07:21:01.647Z,78.59
2019-06-07T07:22:01.670Z,79.21
2019-06-07T07:23:01.718Z,78.63
2019-06-07T07:24:20.156Z,79.07
2019-06-07T07:25:01.634Z,79.16
2019-06-07T07:26:01.631Z,79.07
2019-06-07T07:27:01.627Z,80.12
2019-06-07T07:28:01.632Z,79.55
2019-06-07T07:29:01.620Z,79.74
2019-06-07T07:30:34.672Z,80.35
2019-06-07T07:31:01.614Z,80.16
2019-06-07T07:32:01.613Z,78.44
2019-06-07T07:33:01.652Z,78.67
2019-06-07T07:35:01.603Z,78.77
2019-06-07T07:36:23.124Z,77.80
2019-06-07T07:37:01.599Z,77.51
2019-06-07T07:38:01.613Z,77.04
2019-06-07T07:39:05.337Z,77.23
2019-06-07T07:40:47.555Z,77.23
2019-06-07T07:41:13.860Z,77.76
2019-06-07T07:42:20.229Z,77.58
2019-06-07T07:43:01.590Z,77.61
2019-06-07T07:44:06.552Z,77.42
2019-06-07T07:45:01.587Z,77.33
2019-06-07T07:46:03.279Z,77.33
2019-06-07T07:47:01.589Z,77.04
2019-06-07T07:48:15.284Z,76.59
2019-06-07T07:49:01.582Z,76.21
2019-06-07T07:50:01.582Z,75.73
2019-06-07T07:51:03.458Z,76.12
2019-06-07T07:52:01.581Z,76.25
2019-06-07T07:53:01.707Z,74.75
2019-06-07T07:54:10.600Z,74.65
2019-06-07T07:55:01.591Z,74.75
2019-06-07T07:56:01.759Z,72.92
2019-06-07T07:57:01.583Z,73.18
2019-06-07T07:58:02.051Z,73.37
2019-06-07T07:59:02.804Z,72.89
2019-06-07T08:00:48.013Z,72.99
2019-06-07T08:01:10.267Z,74.37
2019-06-07T08:02:01.589Z,74.75
2019-06-07T08:03:04.281Z,73.31
2019-06-07T08:04:01.592Z,72.09
2019-06-07T08:05:25.513Z,72.48
2019-06-07T08:06:01.605Z,71.61
2019-06-07T08:07:01.607Z,71.23
2019-06-07T08:08:05.365Z,70.72
2019-06-07T08:09:01.606Z,72.31
2019-06-07T08:10:04.135Z,72.31
2019-06-07T08:11:02.407Z,72.12
2019-06-07T08:12:02.598Z,72.89
2019-06-07T08:13:22.265Z,73.60
2019-06-07T08:14:01.619Z,72.73
2019-06-07T08:15:03.520Z,72.67
2019-06-07T08:16:10.745Z,72.09
2019-06-07T08:17:01.617Z,71.65
2019-06-07T08:18:04.505Z,70.05
2019-06-07T08:19:03.816Z,69.18
2019-06-07T08:20:02.960Z,68.74
2019-06-07T08:21:21.407Z,67.65
2019-06-07T08:22:01.941Z,67.93
2019-06-07T08:23:01.634Z,68.48
2019-06-07T08:24:05.123Z,69.53
2019-06-07T08:25:04.248Z,70.88
2019-06-07T08:26:01.640Z,70.82
2019-06-07T08:27:24.631Z,69.63
2019-06-07T08:28:01.644Z,69.73
2019-06-07T08:29:02.944Z,69.82
2019-06-07T08:30:25.688Z,70.21
2019-06-07T08:31:07.012Z,69.34
2019-06-07T08:32:01.653Z,69.76
2019-06-07T08:33:24.828Z,69.41
2019-06-07T08:34:01.662Z,67.68
2019-06-07T08:35:05.829Z,67.87
2019-06-07T08:36:19.423Z,67.77
2019-06-07T08:37:02.202Z,67.10
2019-06-07T08:38:25.329Z,68.84
2019-06-07T08:39:07.254Z,69.60
2019-06-07T08:40:02.109Z,68.10
2019-06-07T08:41:10.948Z,67.23
2019-06-07T08:42:15.432Z,68.13
2019-06-07T08:43:15.234Z,66.72
2019-06-07T08:44:21.710Z,66.62
2019-06-07T08:45:05.457Z,63.82
2019-06-07T08:46:07.096Z,63.98
2019-06-07T08:47:19.301Z,64.18
2019-06-07T08:48:09.485Z,63.38
2019-06-07T08:49:04.575Z,66.07
2019-06-07T08:50:07.493Z,66.36
2019-06-07T08:51:08.170Z,66.20
2019-06-07T08:52:10.515Z,65.53
2019-06-07T08:53:11.447Z,64.56
2019-06-07T08:54:21.034Z,64.76
2019-06-07T08:55:04.905Z,65.14
2019-06-07T08:56:09.712Z,63.89
2019-06-07T08:57:19.338Z,64.56
2019-06-07T08:58:08.193Z,63.98
2019-06-07T08:59:10.771Z,64.59
2019-06-07T09:00:16.141Z,63.73
2019-06-07T09:01:07.709Z,63.92
2019-06-07T09:02:09.105Z,65.17
2019-06-07T09:03:05.216Z,64.34
2019-06-07T09:04:07.757Z,63.12
2019-06-07T09:05:10.605Z,64.50
2019-06-07T09:06:16.139Z,62.18
2019-06-07T09:07:12.093Z,62.18
2019-06-07T09:08:23.628Z,60.86
2019-06-07T09:09:04.828Z,60.64
2019-06-07T09:10:09.576Z,61.31
2019-06-07T09:11:06.343Z,63.24
2019-06-07T09:12:07.999Z,61.44
2019-06-07T09:13:09.957Z,60.64
2019-06-07T09:14:08.398Z,58.80
2019-06-07T09:15:14.774Z,59.06
2019-06-07T09:16:08.090Z,62.57
2019-06-07T09:17:10.248Z,60.76
2019-06-07T09:19:10.058Z,61.60
2019-06-07T09:20:09.424Z,59.86
2019-06-07T09:21:07.721Z,60.72
2019-06-07T09:22:08.231Z,58.04
2019-06-07T09:23:15.726Z,60.37
2019-06-07T09:24:07.053Z,57.63
2019-06-07T09:25:09.427Z,58.80
2019-06-07T09:26:15.427Z,60.08
2019-06-07T09:27:05.334Z,58.82
2019-06-07T09:28:07.936Z,55.63
2019-06-07T09:29:06.857Z,54.57
2019-06-07T09:30:08.872Z,54.44
2019-06-07T09:31:06.953Z,54.44
2019-06-07T09:32:09.684Z,55.79
2019-06-07T09:33:06.626Z,55.53
2019-06-07T09:34:08.315Z,54.08
2019-06-07T09:35:08.497Z,54.27
2019-06-07T09:36:07.208Z,56.21
2019-06-07T09:37:24.464Z,53.02
2019-06-07T09:38:11.014Z,54.08
2019-06-07T09:39:07.622Z,55.56
2019-06-07T09:40:19.406Z,52.85
2019-06-07T09:41:03.181Z,52.27
2019-06-07T09:42:08.373Z,54.08
2019-06-07T09:43:47.972Z,53.99
2019-06-07T09:44:19.290Z,54.17
2019-06-07T09:45:05.676Z,55.53
2019-06-07T09:46:11.071Z,55.27
2019-06-07T09:47:22.251Z,55.07
2019-06-07T09:48:05.696Z,56.07
2019-06-07T09:49:14.061Z,54.23
2019-06-07T09:50:08.377Z,53.97
2019-06-07T09:51:09.532Z,52.20
2019-06-07T09:52:03.610Z,53.07
2019-06-07T09:53:10.558Z,55.04
2019-06-07T09:54:06.862Z,52.51
2019-06-07T09:55:09.458Z,52.32
2019-06-07T09:56:04.526Z,51.52
2019-06-07T09:57:07.002Z,52.10
2019-06-07T09:58:30.296Z,53.36
2019-06-07T09:59:04.777Z,54.13
2019-06-07T10:00:33.570Z,53.75
2019-06-07T10:01:06.199Z,54.16
2019-06-07T10:02:03.626Z,54.67
2019-06-07T10:03:08.816Z,53.02
2019-06-07T10:04:07.371Z,52.06
2019-06-07T10:05:05.216Z,52.54
2019-06-07T10:06:07.572Z,52.15
2019-06-07T10:07:10.481Z,49.54
2019-06-07T10:08:20.959Z,50.21
2019-06-07T10:11:02.648Z,50.48
2019-06-07T10:12:02.349Z,51.45
2019-06-07T10:13:03.801Z,50.87
2019-06-07T10:14:02.481Z,50.16
2019-06-07T10:15:02.920Z,51.06
2019-06-07T10:16:02.799Z,53.02
2019-06-07T10:17:03.202Z,52.83
2019-06-07T10:18:02.820Z,51.53
2019-06-07T10:19:03.655Z,50.65
2019-06-07T10:20:03.923Z,49.68
2019-06-07T10:21:03.740Z,48.71
2019-06-07T10:22:03.368Z,50.56
2019-06-07T10:23:03.706Z,48.80
2019-06-07T10:24:03.494Z,50.16
2019-06-07T10:25:02.488Z,48.42
2019-06-07T10:26:03.961Z,51.33
2019-06-07T10:27:03.885Z,50.82
2019-06-07T10:28:03.736Z,48.20
2019-06-07T10:29:04.894Z,48.85
2019-06-07T10:30:03.963Z,50.96
2019-06-07T10:31:02.520Z,51.06
2019-06-07T10:32:02.500Z,54.11
2019-06-07T10:33:02.524Z,52.28
2019-06-07T10:34:02.516Z,51.04
2019-06-07T10:35:03.305Z,49.29
2019-06-07T10:36:02.554Z,51.84
2019-06-07T10:37:03.802Z,50.58
2019-06-07T10:38:02.588Z,47.64
2019-06-07T10:39:02.940Z,48.30
2019-06-07T10:40:02.928Z,49.27
2019-06-07T10:41:02.871Z,50.53
2019-06-07T10:42:04.055Z,49.92
2019-06-07T10:43:03.053Z,49.90
2019-06-07T10:44:03.342Z,49.80
2019-06-07T10:45:04.411Z,50.16
2019-06-07T10:46:03.671Z,51.81
2019-06-07T10:47:03.845Z,52.29
2019-06-07T10:48:03.568Z,53.65
2019-06-07T10:49:03.789Z,54.13
2019-06-07T10:50:03.802Z,52.51
2019-06-07T10:51:04.088Z,51.54
2019-06-07T10:52:04.785Z,53.09
2019-06-07T10:53:02.679Z,55.32
2019-06-07T10:54:10.805Z,54.38
2019-06-07T10:55:02.695Z,53.02
2019-06-07T10:56:02.986Z,53.70
2019-06-07T10:57:02.957Z,53.39
2019-06-07T10:58:02.828Z,52.78
2019-06-07T10:59:03.155Z,54.62
2019-06-07T11:00:03.489Z,54.64
2019-06-07T11:01:03.374Z,53.39
2019-06-07T11:02:03.471Z,53.19
2019-06-07T11:03:03.616Z,54.48
2019-06-07T11:04:03.390Z,52.93
2019-06-07T11:05:03.679Z,52.83
2019-06-07T11:06:03.730Z,53.70
2019-06-07T11:07:04.415Z,53.61
2019-06-07T11:08:03.877Z,53.41
2019-06-07T11:09:03.792Z,52.83
2019-06-07T11:10:09.367Z,54.09
2019-06-07T11:11:03.830Z,53.70
2019-06-07T11:12:04.221Z,54.09
2019-06-07T11:13:04.027Z,52.83
2019-06-07T11:14:04.293Z,54.28
2019-06-07T11:15:02.855Z,54.09
2019-06-07T11:16:02.863Z,54.09
2019-06-07T11:17:02.869Z,54.19
2019-06-07T11:18:02.887Z,55.28
2019-06-07T11:19:02.939Z,55.21
2019-06-07T11:20:02.890Z,53.95
2019-06-07T11:21:02.900Z,52.69
2019-06-07T11:22:02.907Z,52.47
2019-06-07T11:23:02.916Z,53.15
2019-06-07T11:24:02.925Z,52.37
2019-06-07T11:25:03.539Z,53.22
2019-06-07T11:26:02.946Z,55.26
2019-06-07T11:27:02.945Z,52.93
2019-06-07T11:28:02.954Z,53.80
2019-06-07T11:29:02.969Z,53.22
2019-06-07T11:30:02.988Z,53.92
2019-06-07T11:31:02.975Z,55.50
2019-06-07T11:32:02.982Z,56.52
2019-06-07T11:33:02.989Z,53.16
2019-06-07T11:34:02.999Z,51.31
2019-06-07T11:35:03.013Z,52.09
2019-06-07T11:36:03.013Z,51.50
2019-06-07T11:37:03.066Z,51.28
2019-06-07T11:38:03.061Z,53.10
2019-06-07T11:39:03.039Z,53.37
2019-06-07T11:40:03.044Z,53.39
2019-06-07T11:41:03.055Z,52.30
2019-06-07T11:42:03.058Z,52.30
2019-06-07T11:43:03.144Z,52.59
2019-06-07T11:44:03.077Z,52.59
2019-06-07T11:45:03.076Z,52.11
2019-06-07T11:46:03.082Z,52.59
2019-06-07T11:47:03.092Z,51.09
2019-06-07T11:48:03.096Z,53.00
2019-06-07T11:49:03.162Z,53.89
2019-06-07T11:50:03.104Z,55.47
2019-06-07T11:51:03.110Z,55.60
2019-06-07T11:52:03.114Z,50.38
2019-06-07T11:53:03.124Z,51.28
2019-06-07T11:54:03.129Z,47.03
2019-06-07T11:55:03.138Z,41.90
2019-06-07T11:56:03.145Z,40.83
2019-06-07T11:57:03.149Z,40.34
2019-06-07T11:58:03.168Z,39.18
2019-06-07T11:59:03.164Z,37.14
2019-06-07T12:00:03.171Z,38.42
2019-06-07T12:01:03.181Z,37.22
2019-06-07T12:02:03.188Z,37.88
2019-06-07T12:03:03.194Z,38.73
2019-06-07T12:04:03.202Z,38.64
2019-06-07T12:05:03.207Z,38.42
2019-06-07T12:06:03.213Z,39.51
2019-06-07T12:07:03.242Z,39.14
2019-06-07T12:08:03.225Z,39.24
2019-06-07T12:09:03.238Z,39.14
2019-06-07T12:10:03.240Z,38.57
2019-06-07T12:11:03.248Z,37.99
2019-06-07T12:12:03.255Z,39.03
2019-06-07T12:13:03.260Z,40.67
2019-06-07T12:14:03.268Z,41.36
2019-06-07T12:15:03.275Z,40.58
2019-06-07T12:16:03.279Z,40.01
2019-06-07T12:17:03.315Z,40.03
2019-06-07T12:18:03.291Z,39.04
2019-06-07T12:19:03.307Z,40.31
2019-06-07T12:20:03.412Z,42.35
2019-06-07T12:21:03.308Z,41.53
2019-06-07T12:22:03.319Z,41.41
2019-06-07T12:23:03.321Z,42.36
2019-06-07T12:24:03.353Z,42.46
2019-06-07T12:25:05.814Z,43.82
2019-06-07T12:26:03.326Z,43.72
2019-06-07T12:27:03.351Z,42.96
2019-06-07T12:28:03.330Z,43.26
2019-06-07T12:29:03.334Z,44.49
2019-06-07T12:30:09.464Z,43.62
2019-06-07T12:31:03.337Z,45.15
2019-06-07T12:32:03.340Z,45.73
2019-06-07T12:33:03.347Z,45.75
2019-06-07T12:34:03.342Z,43.91
2019-06-07T12:35:03.344Z,43.21
2019-06-07T12:36:03.347Z,43.31
2019-06-07T12:37:03.345Z,43.60
2019-06-07T12:38:03.348Z,44.54
2019-06-07T12:39:03.347Z,45.22
2019-06-07T12:40:03.363Z,45.51
2019-06-07T12:41:03.348Z,45.42
2019-06-07T12:42:03.354Z,45.22
2019-06-07T12:43:03.349Z,45.42
2019-06-07T12:44:03.380Z,45.13
2019-06-07T12:45:03.349Z,45.22
2019-06-07T12:46:03.355Z,45.88
2019-06-07T12:47:03.356Z,45.30
2019-06-07T12:48:03.398Z,45.68
2019-06-07T12:49:03.348Z,45.30
2019-06-07T12:50:03.351Z,45.78
2019-06-07T12:51:03.352Z,46.56
2019-06-07T12:52:03.348Z,46.67
2019-06-07T12:53:03.345Z,46.39
2019-06-07T12:54:03.346Z,46.84
2019-06-07T12:55:03.356Z,46.75
2019-06-07T12:56:03.344Z,45.78
2019-06-07T12:57:03.342Z,45.68
2019-06-07T12:58:03.342Z,47.62
2019-06-07T12:59:03.340Z,47.24